createdAt,value
2018-06-03T00:01:15.376Z,74.83
2018-06-03T00:03:44.612Z,83.27
2018-06-03T00:06:14.016Z,72.23
2018-06-03T00:08:43.336Z,72.13
2018-06-03T00:11:12.627Z,74.33
2018-06-03T00:13:41.936Z,66.23
2018-06-03T00:16:11.274Z,68.07
2018-06-03T00:18:40.583Z,65.60
2018-06-03T00:21:27.186Z,70.37
2018-06-03T00:23:56.544Z,68.87
2018-06-03T00:26:26.218Z,71.63
2018-06-03T00:28:55.532Z,68.80
2018-06-03T00:31:24.831Z,65.13
2018-06-03T00:33:54.130Z,63.80
2018-06-03T00:36:41.259Z,78.53
2018-06-03T00:39:10.681Z,62.80
2018-06-03T00:41:40.007Z,62.40
2018-06-03T00:44:09.368Z,65.10
2018-06-03T00:46:38.688Z,69.07
2018-06-03T00:49:08.159Z,59.83
2018-06-03T00:51:37.953Z,65.83
2018-06-03T00:54:07.413Z,65.00
2018-06-03T00:56:53.786Z,62.83
2018-06-03T00:59:23.310Z,72.87
2018-06-03T01:01:52.711Z,61.87
2018-06-03T01:04:22.756Z,71.10
2018-06-03T01:06:52.099Z,66.17
2018-06-03T01:09:21.568Z,72.60
2018-06-03T01:11:51.269Z,74.20
2018-06-03T01:14:20.699Z,74.07
2018-06-03T01:16:50.386Z,68.10
2018-06-03T01:19:19.859Z,77.73
2018-06-03T01:21:49.206Z,70.70
2018-06-03T01:24:18.472Z,69.17
2018-06-03T01:26:47.829Z,71.07
2018-06-03T01:29:17.089Z,67.53
2018-06-03T01:31:46.411Z,75.73
2018-06-03T01:34:15.842Z,69.23
2018-06-03T01:36:45.092Z,63.70
2018-06-03T01:39:14.353Z,73.40
2018-06-03T01:41:43.735Z,65.17
2018-06-03T01:44:13.049Z,73.83
2018-06-03T01:46:42.361Z,68.03
2018-06-03T01:49:11.719Z,74.43
2018-06-03T01:51:41.032Z,75.73
2018-06-03T01:54:11.154Z,72.80
2018-06-03T01:56:40.481Z,74.80
2018-06-03T01:59:09.784Z,71.80
2018-06-03T02:01:39.119Z,67.27
2018-06-03T02:04:08.622Z,70.70
2018-06-03T02:06:37.930Z,81.93
2018-06-03T02:09:07.635Z,76.60
2018-06-03T02:11:36.998Z,72.40
2018-06-03T02:14:06.299Z,83.33
2018-06-03T02:16:35.653Z,71.63
2018-06-03T02:19:05.000Z,75.27
2018-06-03T02:21:34.289Z,86.03
2018-06-03T02:24:03.596Z,81.50
2018-06-03T02:26:33.074Z,81.73
2018-06-03T02:29:03.220Z,74.47
2018-06-03T02:31:32.522Z,75.60
2018-06-03T02:34:01.831Z,78.27
2018-06-03T02:36:31.167Z,85.60
2018-06-03T02:39:00.556Z,76.97
2018-06-03T02:41:29.929Z,83.27
2018-06-03T02:43:59.224Z,86.10
2018-06-03T02:46:28.638Z,77.13
2018-06-03T02:48:57.768Z,83.17
2018-06-03T02:51:27.190Z,71.30
2018-06-03T02:53:56.491Z,82.87
2018-06-03T02:56:25.794Z,78.03
2018-06-03T02:58:55.140Z,71.60
2018-06-03T03:01:24.467Z,75.73
2018-06-03T03:03:53.821Z,79.13
2018-06-03T03:06:23.129Z,81.17
2018-06-03T03:08:52.436Z,88.97
2018-06-03T03:11:22.765Z,74.20
2018-06-03T03:13:52.064Z,74.53
2018-06-03T03:16:21.361Z,85.17
2018-06-03T03:18:50.667Z,85.43
2018-06-03T03:21:19.967Z,78.63
2018-06-03T03:23:49.283Z,76.63
2018-06-03T03:26:18.632Z,89.67
2018-06-03T03:28:47.931Z,86.33
2018-06-03T03:31:17.203Z,80.60
2018-06-03T03:33:46.639Z,88.70
2018-06-03T03:36:15.944Z,82.00
2018-06-03T03:38:45.229Z,90.47
2018-06-03T03:41:14.585Z,85.47
2018-06-03T03:43:43.860Z,87.67
2018-06-03T03:46:13.164Z,81.93
2018-06-03T03:48:42.486Z,81.03
2018-06-03T03:51:11.780Z,92.47
2018-06-03T03:53:41.422Z,79.40
2018-06-03T03:56:10.846Z,82.57
2018-06-03T03:58:40.120Z,86.10
2018-06-03T04:01:09.395Z,83.43
2018-06-03T04:03:38.696Z,96.53
2018-06-03T04:06:08.048Z,93.40
2018-06-03T04:08:37.342Z,96.73
2018-06-03T04:11:06.652Z,94.67
2018-06-03T04:13:36.323Z,91.80
2018-06-03T04:16:05.618Z,90.87
2018-06-03T04:18:35.312Z,96.47
2018-06-03T04:21:04.591Z,98.27
2018-06-03T04:23:33.832Z,84.53
2018-06-03T04:26:03.140Z,93.17
2018-06-03T04:28:32.410Z,96.17
2018-06-03T04:31:01.723Z,92.60
2018-06-03T04:33:30.826Z,101.70
2018-06-03T04:36:00.123Z,91.43
2018-06-03T04:38:29.381Z,100.63
2018-06-03T04:40:58.939Z,92.37
2018-06-03T04:43:28.246Z,97.70
2018-06-03T04:45:57.612Z,96.07
2018-06-03T04:48:26.974Z,86.63
2018-06-03T04:50:56.274Z,99.10
2018-06-03T04:53:25.581Z,94.33
2018-06-03T04:55:54.924Z,95.33
2018-06-03T04:58:23.976Z,97.87
2018-06-03T05:00:53.414Z,95.87
2018-06-03T05:03:23.343Z,96.40
2018-06-03T05:05:52.622Z,104.77
2018-06-03T05:08:21.899Z,96.13
2018-06-03T05:10:51.231Z,94.73
2018-06-03T05:13:20.562Z,101.23
2018-06-03T05:15:49.996Z,96.80
2018-06-03T05:18:19.353Z,96.60
2018-06-03T05:20:48.644Z,98.77
2018-06-03T05:23:17.982Z,99.10
2018-06-03T05:25:47.663Z,96.03
2018-06-03T05:28:16.966Z,91.97
2018-06-03T05:30:46.279Z,99.73
2018-06-03T05:33:15.614Z,99.20
2018-06-03T05:35:44.889Z,102.73
2018-06-03T05:38:14.242Z,107.87
2018-06-03T05:40:43.570Z,98.67
2018-06-03T05:43:12.842Z,93.50
2018-06-03T05:45:42.112Z,93.67
2018-06-03T05:48:11.645Z,84.43
2018-06-03T05:50:41.031Z,92.67
2018-06-03T05:53:10.355Z,91.43
2018-06-03T05:55:39.656Z,87.00
2018-06-03T05:58:08.989Z,87.53
2018-06-03T06:00:38.258Z,81.63
2018-06-03T06:03:07.948Z,83.00
2018-06-03T06:05:37.355Z,82.73
2018-06-03T06:08:06.703Z,79.83
2018-06-03T06:10:36.188Z,83.03
2018-06-03T06:13:05.469Z,80.43
2018-06-03T06:15:34.759Z,80.77
2018-06-03T06:18:04.110Z,76.70
2018-06-03T06:20:33.462Z,83.13
2018-06-03T06:23:02.834Z,76.97
2018-06-03T06:25:32.175Z,77.43
2018-06-03T06:28:01.533Z,76.67
2018-06-03T06:30:30.909Z,79.67
2018-06-03T06:33:00.447Z,78.87
2018-06-03T06:35:29.917Z,78.33
2018-06-03T06:37:59.179Z,74.93
2018-06-03T06:40:28.494Z,80.03
2018-06-03T06:42:57.871Z,72.67
2018-06-03T06:45:27.286Z,69.43
2018-06-03T06:47:56.658Z,65.53
2018-06-03T06:50:26.040Z,74.50
2018-06-03T06:52:55.428Z,71.37
2018-06-03T06:55:25.176Z,67.20
2018-06-03T06:57:54.540Z,61.57
2018-06-03T07:00:23.841Z,64.30
2018-06-03T07:02:53.178Z,63.97
2018-06-03T07:05:22.431Z,60.90
2018-06-03T07:07:51.905Z,58.63
2018-06-03T07:10:21.274Z,65.47
2018-06-03T07:12:50.686Z,58.70
2018-06-03T07:15:20.028Z,57.90
2018-06-03T07:17:49.895Z,60.63
2018-06-03T07:20:19.224Z,55.33
2018-06-03T07:22:48.910Z,52.77
2018-06-03T07:25:18.277Z,50.23
2018-06-03T07:27:47.609Z,51.23
2018-06-03T07:30:16.978Z,47.53
2018-06-03T07:32:47.051Z,48.47
2018-06-03T07:35:16.381Z,44.73
2018-06-03T07:37:45.691Z,40.50
2018-06-03T07:40:15.064Z,43.03
2018-06-03T07:42:44.362Z,46.00
2018-06-03T07:45:13.702Z,48.10
2018-06-03T07:47:43.023Z,46.50
2018-06-03T07:50:12.323Z,45.63
2018-06-03T07:52:41.842Z,42.93
2018-06-03T07:55:11.166Z,42.17
2018-06-03T07:57:43.332Z,44.00
2018-06-03T08:00:13.686Z,46.93
2018-06-03T08:02:42.953Z,48.87
2018-06-03T08:05:12.269Z,46.50
2018-06-03T08:07:41.575Z,39.13
2018-06-03T08:10:10.890Z,49.50
2018-06-03T08:12:40.220Z,44.60
2018-06-03T08:15:09.525Z,39.73
2018-06-03T08:17:38.820Z,39.40
2018-06-03T08:20:08.104Z,38.13
2018-06-03T08:22:37.909Z,40.30
2018-06-03T08:25:07.211Z,47.20
2018-06-03T08:27:36.507Z,39.43
2018-06-03T08:30:06.115Z,47.80
2018-06-03T08:32:35.588Z,42.83
2018-06-03T08:35:04.991Z,39.10
2018-06-03T08:37:34.400Z,37.37
2018-06-03T08:40:03.983Z,40.63
2018-06-03T08:42:33.401Z,39.23
2018-06-03T08:45:02.854Z,38.53
2018-06-03T08:47:32.171Z,38.20
2018-06-03T08:50:01.489Z,42.30
2018-06-03T08:52:30.818Z,44.60
2018-06-03T08:55:00.163Z,38.57
2018-06-03T08:57:29.675Z,39.20
2018-06-03T08:59:59.033Z,34.60
2018-06-03T09:02:28.365Z,43.77
2018-06-03T09:04:57.796Z,37.83
2018-06-03T09:07:27.798Z,36.20
2018-06-03T09:09:57.117Z,32.03
2018-06-03T09:12:26.476Z,29.37
2018-06-03T09:14:55.874Z,45.50
2018-06-03T09:17:25.268Z,31.90
2018-06-03T09:19:54.334Z,33.73
2018-06-03T09:22:23.722Z,34.07
2018-06-03T09:24:53.045Z,33.47
2018-06-03T09:27:22.347Z,36.33
2018-06-03T09:29:51.845Z,34.87
2018-06-03T09:32:21.149Z,46.63
2018-06-03T09:34:50.517Z,30.10
2018-06-03T09:37:19.876Z,33.77
2018-06-03T09:39:49.322Z,32.93
2018-06-03T09:42:18.875Z,41.83
2018-06-03T09:44:48.265Z,36.50
2018-06-03T09:47:18.520Z,39.80
2018-06-03T09:49:47.891Z,35.47
2018-06-03T09:52:17.358Z,45.73
2018-06-03T09:54:46.673Z,45.63
2018-06-03T09:57:16.062Z,35.00
2018-06-03T09:59:45.180Z,35.23
2018-06-03T10:02:14.817Z,40.33
2018-06-03T10:04:44.136Z,41.27
2018-06-03T10:07:13.552Z,36.97
2018-06-03T10:09:42.946Z,31.70
2018-06-03T10:12:12.323Z,38.30
2018-06-03T10:14:41.997Z,37.10
2018-06-03T10:17:11.317Z,27.03
2018-06-03T10:19:40.676Z,40.87
2018-06-03T10:22:10.093Z,33.10
2018-06-03T10:24:39.426Z,34.57
2018-06-03T10:27:08.793Z,41.83
2018-06-03T10:29:38.122Z,46.10
2018-06-03T10:32:07.484Z,29.60
2018-06-03T10:34:36.925Z,33.40
2018-06-03T10:37:06.519Z,33.93
2018-06-03T10:39:35.875Z,28.33
2018-06-03T10:42:05.245Z,39.63
2018-06-03T10:44:34.553Z,27.70
2018-06-03T10:47:03.854Z,37.20
2018-06-03T10:49:33.252Z,32.33
2018-06-03T10:52:02.629Z,28.53
2018-06-03T10:54:32.305Z,34.53
2018-06-03T10:57:01.572Z,32.47
2018-06-03T10:59:31.255Z,33.17
2018-06-03T11:02:00.787Z,31.47
2018-06-03T11:04:30.215Z,26.60
2018-06-03T11:06:59.598Z,20.67
2018-06-03T11:09:28.903Z,23.07
2018-06-03T11:11:58.366Z,21.07
2018-06-03T11:14:27.863Z,25.40
2018-06-03T11:16:57.511Z,20.33
2018-06-03T11:19:26.967Z,24.80
2018-06-03T11:21:56.572Z,32.57
2018-06-03T11:24:25.902Z,28.40
2018-06-03T11:26:55.261Z,35.73
2018-06-03T11:29:24.579Z,24.47
2018-06-03T11:31:54.075Z,26.03
2018-06-03T11:34:23.583Z,26.50
2018-06-03T11:36:52.974Z,22.90
2018-06-03T11:39:22.309Z,25.90
2018-06-03T11:41:51.740Z,31.03
2018-06-03T11:44:21.621Z,33.17
2018-06-03T11:46:51.016Z,22.93
2018-06-03T11:49:20.348Z,25.40
2018-06-03T11:51:49.723Z,25.87
2018-06-03T11:54:18.995Z,30.97
2018-06-03T11:57:02.754Z,26.70
2018-06-03T11:59:42.704Z,20.10
2018-06-03T12:02:13.828Z,28.90
2018-06-03T12:04:43.161Z,21.37
2018-06-03T12:07:12.544Z,28.20
2018-06-03T12:09:42.864Z,19.23
2018-06-03T12:12:12.432Z,23.20
2018-06-03T12:14:42.544Z,20.37
2018-06-03T12:17:12.065Z,19.63
2018-06-03T12:19:41.728Z,21.00
2018-06-03T12:22:11.412Z,18.97
2018-06-03T12:24:41.057Z,19.10
2018-06-03T12:27:10.614Z,20.57
2018-06-03T12:29:40.132Z,22.73
2018-06-03T12:32:09.559Z,16.70
2018-06-03T12:34:39.084Z,14.27
2018-06-03T12:37:08.536Z,19.67
2018-06-03T12:39:38.047Z,16.90
2018-06-03T12:42:07.472Z,15.40
2018-06-03T12:44:36.950Z,21.27
2018-06-03T12:47:06.517Z,27.03
2018-06-03T12:49:35.853Z,19.87
2018-06-03T12:52:05.213Z,16.63
2018-06-03T12:54:34.566Z,16.40
2018-06-03T12:57:04.056Z,20.13
2018-06-03T12:59:33.380Z,14.10
2018-06-03T13:02:02.743Z,21.10
2018-06-03T13:04:32.119Z,24.63
2018-06-03T13:07:01.871Z,17.23
2018-06-03T13:09:31.272Z,23.10
2018-06-03T13:12:01.306Z,12.23
2018-06-03T13:14:30.920Z,22.90
2018-06-03T13:17:00.561Z,21.20
2018-06-03T13:19:29.917Z,15.53
2018-06-03T13:21:59.276Z,25.13
2018-06-03T13:24:28.583Z,25.70
2018-06-03T13:26:57.975Z,15.13
2018-06-03T13:29:27.384Z,17.57
2018-06-03T13:31:56.865Z,19.63
2018-06-03T13:34:26.404Z,17.13
2018-06-03T13:36:55.769Z,17.37
2018-06-03T13:39:25.138Z,18.27
2018-06-03T13:41:54.505Z,16.77
2018-06-03T13:44:23.887Z,20.63
2018-06-03T13:46:53.270Z,21.93
2018-06-03T13:49:22.562Z,16.40
2018-06-03T13:51:51.846Z,15.67
2018-06-03T13:54:21.425Z,18.40
2018-06-03T13:56:50.856Z,22.00
2018-06-03T13:59:20.381Z,15.70
2018-06-03T14:01:49.926Z,18.67
2018-06-03T14:04:19.266Z,14.80
2018-06-03T14:06:48.569Z,13.00
2018-06-03T14:09:17.972Z,15.67
2018-06-03T14:11:47.486Z,16.83
2018-06-03T14:14:16.895Z,22.53
2018-06-03T14:16:46.435Z,13.17
2018-06-03T14:19:16.351Z,13.83
2018-06-03T14:21:45.750Z,19.00
2018-06-03T14:24:15.126Z,17.93
2018-06-03T14:26:44.464Z,25.27
2018-06-03T14:29:13.847Z,21.70
2018-06-03T14:31:43.311Z,22.53
2018-06-03T14:34:12.632Z,14.67
2018-06-03T14:36:41.988Z,11.90
2018-06-03T14:39:11.507Z,19.80
2018-06-03T14:41:40.897Z,10.73
2018-06-03T14:44:10.083Z,19.07
2018-06-03T14:46:39.674Z,16.53
2018-06-03T14:49:09.200Z,19.90
2018-06-03T14:51:38.659Z,14.47
2018-06-03T14:54:08.111Z,18.40
2018-06-03T14:56:37.617Z,20.80
2018-06-03T14:59:07.003Z,15.37
2018-06-03T15:01:36.546Z,20.07
2018-06-03T15:04:05.959Z,19.47
2018-06-03T15:06:35.288Z,19.23
2018-06-03T15:09:07.794Z,21.43
2018-06-03T15:11:37.922Z,20.00
2018-06-03T15:14:07.664Z,18.77
2018-06-03T15:16:37.568Z,24.60
2018-06-03T15:19:07.006Z,22.33
2018-06-03T15:21:36.596Z,17.90
2018-06-03T15:24:07.402Z,30.00
2018-06-03T15:26:37.118Z,26.20
2018-06-03T15:29:07.835Z,26.47
2018-06-03T15:31:37.416Z,30.50
2018-06-03T15:34:07.677Z,21.80
2018-06-03T15:36:37.255Z,26.53
2018-06-03T15:39:09.394Z,21.70
2018-06-03T15:41:39.142Z,26.87
2018-06-03T15:44:09.383Z,22.00
2018-06-03T15:46:39.802Z,22.63
2018-06-03T15:49:09.521Z,21.27
2018-06-03T15:51:39.835Z,24.53
2018-06-03T15:54:09.427Z,19.03
2018-06-03T15:56:39.363Z,16.00
2018-06-03T15:59:09.076Z,17.47
2018-06-03T16:01:38.890Z,19.63
2018-06-03T16:04:08.296Z,18.60
2018-06-03T16:06:38.443Z,20.77
2018-06-03T16:09:08.631Z,17.87
2018-06-03T16:11:38.353Z,19.13
2018-06-03T16:14:07.823Z,17.17
2018-06-03T16:16:37.232Z,18.17
2018-06-03T16:19:06.751Z,18.10
2018-06-03T16:21:36.338Z,25.90
2018-06-03T16:24:06.767Z,21.20
2018-06-03T16:26:36.300Z,24.70
2018-06-03T16:29:06.335Z,21.40
2018-06-03T16:31:35.989Z,20.70
2018-06-03T16:34:05.464Z,25.97
2018-06-03T16:36:34.923Z,21.73
2018-06-03T16:39:04.699Z,26.47
2018-06-03T16:41:34.170Z,36.33
2018-06-03T16:44:03.404Z,29.10
2018-06-03T16:46:33.138Z,27.60
2018-06-03T16:49:02.540Z,22.20
2018-06-03T16:51:31.978Z,20.40
2018-06-03T16:54:01.148Z,30.73
2018-06-03T16:56:30.488Z,27.07
2018-06-03T16:58:59.841Z,28.60
2018-06-03T17:01:29.247Z,39.53
2018-06-03T17:03:59.047Z,21.30
2018-06-03T17:06:28.435Z,33.67
2018-06-03T17:08:58.239Z,37.10
2018-06-03T17:11:27.608Z,33.30
2018-06-03T17:13:57.098Z,33.03
2018-06-03T17:16:26.531Z,25.87
2018-06-03T17:18:55.905Z,30.80
2018-06-03T17:21:25.247Z,27.57
2018-06-03T17:23:54.367Z,30.13
2018-06-03T17:26:23.702Z,34.70
2018-06-03T17:28:53.038Z,24.87
2018-06-03T17:31:22.614Z,32.57
2018-06-03T17:33:51.951Z,32.67
2018-06-03T17:36:24.194Z,30.30
2018-06-03T17:38:53.791Z,30.67
2018-06-03T17:41:23.232Z,32.00
2018-06-03T17:43:52.733Z,38.70
2018-06-03T17:46:22.085Z,28.40
2018-06-03T17:48:51.599Z,26.00
2018-06-03T17:51:21.005Z,31.57
2018-06-03T17:53:50.812Z,37.90
2018-06-03T17:56:20.189Z,23.70
2018-06-03T17:58:49.570Z,29.00
2018-06-03T18:01:18.989Z,30.33
2018-06-03T18:03:48.356Z,28.50
2018-06-03T18:06:17.763Z,27.90
2018-06-03T18:08:47.166Z,28.23
2018-06-03T18:11:17.010Z,34.37
2018-06-03T18:13:46.396Z,28.33
2018-06-03T18:16:16.299Z,42.47
2018-06-03T18:18:45.712Z,29.73
2018-06-03T18:21:15.066Z,28.27
2018-06-03T18:23:44.613Z,28.53
2018-06-03T18:26:14.043Z,25.30
2018-06-03T18:28:43.437Z,30.77
2018-06-03T18:31:12.990Z,30.83
2018-06-03T18:33:42.348Z,30.67
2018-06-03T18:36:11.871Z,31.60
2018-06-03T18:38:41.381Z,24.63
2018-06-03T18:41:10.766Z,25.50
2018-06-03T18:43:40.161Z,34.80
2018-06-03T18:46:09.590Z,27.40
2018-06-03T18:48:39.096Z,37.07
2018-06-03T18:51:08.508Z,34.00
2018-06-03T18:53:37.940Z,28.77
2018-06-03T18:56:07.318Z,43.53
2018-06-03T18:58:36.681Z,32.47
2018-06-03T19:01:06.179Z,34.40
2018-06-03T19:03:35.565Z,30.60
2018-06-03T19:06:04.997Z,42.40
2018-06-03T19:08:34.539Z,24.33
2018-06-03T19:11:03.983Z,47.13
2018-06-03T19:13:33.425Z,32.50
2018-06-03T19:16:02.872Z,33.70
2018-06-03T19:18:32.362Z,30.63
2018-06-03T19:21:01.735Z,30.50
2018-06-03T19:23:31.471Z,33.40
2018-06-03T19:26:00.951Z,34.70
2018-06-03T19:28:30.299Z,27.93
2018-06-03T19:30:59.689Z,52.20
2018-06-03T19:33:29.165Z,34.70
2018-06-03T19:35:58.597Z,35.07
2018-06-03T19:38:28.259Z,37.57
2018-06-03T19:40:57.714Z,31.83
2018-06-03T19:43:27.053Z,29.13
2018-06-03T19:45:56.720Z,39.00
2018-06-03T19:48:26.386Z,35.37
2018-06-03T19:50:55.927Z,31.10
2018-06-03T19:53:25.295Z,30.33
2018-06-03T19:55:54.540Z,45.47
2018-06-03T19:58:23.931Z,40.63
2018-06-03T20:00:53.288Z,40.70
2018-06-03T20:03:22.626Z,40.10
2018-06-03T20:05:52.035Z,31.63
2018-06-03T20:08:22.419Z,32.63
2018-06-03T20:10:51.851Z,34.97
2018-06-03T20:13:21.192Z,41.10
2018-06-03T20:15:50.575Z,42.17
2018-06-03T20:18:19.902Z,40.63
2018-06-03T20:20:49.335Z,38.30
2018-06-03T20:23:18.792Z,36.90
2018-06-03T20:25:48.264Z,34.03
2018-06-03T20:28:17.725Z,40.43
2018-06-03T20:30:47.502Z,33.70
2018-06-03T20:33:16.997Z,34.57
2018-06-03T20:35:46.382Z,32.40
2018-06-03T20:38:15.767Z,30.63
2018-06-03T20:40:45.186Z,41.87
2018-06-03T20:43:14.687Z,55.53
2018-06-03T20:45:44.052Z,48.03
2018-06-03T20:48:13.385Z,40.00
2018-06-03T20:50:42.843Z,38.03
2018-06-03T20:53:13.236Z,36.03
2018-06-03T20:55:42.613Z,40.37
2018-06-03T20:58:11.975Z,32.43
2018-06-03T21:00:41.493Z,34.43
2018-06-03T21:03:10.841Z,37.87
2018-06-03T21:05:40.210Z,34.23
2018-06-03T21:08:09.591Z,36.63
2018-06-03T21:10:38.928Z,29.67
2018-06-03T21:13:08.261Z,36.77
2018-06-03T21:15:37.688Z,42.80
2018-06-03T21:18:07.028Z,43.60
2018-06-03T21:20:36.326Z,37.30
2018-06-03T21:23:05.852Z,35.27
2018-06-03T21:25:35.326Z,36.23
2018-06-03T21:28:04.661Z,30.57
2018-06-03T21:30:34.015Z,36.60
2018-06-03T21:33:03.327Z,38.50
2018-06-03T21:35:32.951Z,33.50
2018-06-03T21:38:02.349Z,34.33
2018-06-03T21:40:31.826Z,40.97
2018-06-03T21:43:01.290Z,37.93
2018-06-03T21:45:30.706Z,41.30
2018-06-03T21:48:00.127Z,37.97
2018-06-03T21:50:29.444Z,38.67
2018-06-03T21:52:59.106Z,42.20
2018-06-03T21:55:29.413Z,46.47
2018-06-03T21:57:58.742Z,38.10
2018-06-03T22:00:28.554Z,35.63
2018-06-03T22:02:58.008Z,37.50
2018-06-03T22:05:27.574Z,50.70
2018-06-03T22:07:57.087Z,33.33
2018-06-03T22:10:27.436Z,32.60
2018-06-03T22:12:56.788Z,33.23
2018-06-03T22:15:26.124Z,34.57
2018-06-03T22:17:55.571Z,32.40
2018-06-03T22:20:24.899Z,34.57
2018-06-03T22:22:54.586Z,41.57
2018-06-03T22:25:23.872Z,36.60
2018-06-03T22:27:53.267Z,34.50
2018-06-03T22:30:22.879Z,29.20
2018-06-03T22:32:52.282Z,30.50
2018-06-03T22:35:21.808Z,32.07
2018-06-03T22:37:51.295Z,30.37
2018-06-03T22:40:20.742Z,30.50
2018-06-03T22:42:50.077Z,27.30
2018-06-03T22:45:20.138Z,23.87
2018-06-03T22:47:49.458Z,33.37
2018-06-03T22:50:18.575Z,30.33
2018-06-03T22:52:48.088Z,33.30
2018-06-03T22:55:17.638Z,36.53
2018-06-03T22:57:51.965Z,31.80
2018-06-03T23:00:29.571Z,24.23
2018-06-03T23:03:04.623Z,26.67
2018-06-03T23:05:34.323Z,29.03
2018-06-03T23:08:03.649Z,29.67
2018-06-03T23:10:33.402Z,34.97
2018-06-03T23:13:02.930Z,25.00
2018-06-03T23:15:32.646Z,34.87
2018-06-03T23:18:02.453Z,36.63
2018-06-03T23:20:31.858Z,31.10
2018-06-03T23:23:01.324Z,26.80
2018-06-03T23:25:31.497Z,30.73
2018-06-03T23:28:00.836Z,41.20
2018-06-03T23:30:30.145Z,43.30
2018-06-03T23:32:59.498Z,26.23
2018-06-03T23:35:28.799Z,29.77
2018-06-03T23:37:58.065Z,36.23
2018-06-03T23:40:27.403Z,37.30
2018-06-03T23:42:56.722Z,31.03
2018-06-03T23:45:25.997Z,31.93
2018-06-03T23:47:56.129Z,34.97
2018-06-03T23:50:25.479Z,32.83
2018-06-03T23:52:54.739Z,30.43
2018-06-03T23:55:24.022Z,29.77
2018-06-03T23:57:53.334Z,32.10
